To NAV CANADA Home Page Login to a new session Search on AWWS site Feedback and Comments Disclaimer Vers la page française équivalente Tips FAQ What's new on the site To the Forecasts and Observations / NOTAM section To "File a Flight Plan" website Publications and other links Update of the User's profile FIC Telephone Numbers My Weather Data Folder Route Weather Data Regional Weather Data Local Weather Data To the Forecasts and Observations / NOTAM section
Request Generated 02/24/2017 at 03:37:47 UTC . Weather information available at that time is displayed.

METAR/TAF

LA RONGE (BARBER FIELD)/SK    

METAR CYVC 240300Z 21002KT 10SM -SN OVC048 M13/M17 A3015 RMK SC8
SLP249=
METAR CYVC 240200Z 16003KT 110V180 15SM OVC047 M12/M17 A3014 RMK SC8
SLP246=
SPECI CYVC 240142Z 16004KT 15SM -SN OVC048 M13/M16 A3014 RMK SC8
SLP245=
METAR CYVC 240100Z 00000KT 15SM OVC045 M12/M17 A3014 RMK SC8 SLP243=

TAF CYVC 240038Z 2401/2413 VRB03KT P6SM BKN030 TEMPO 2401/2413 4SM
-SN OVC020
RMK NXT FCST BY 240700Z=
Your time UTC time
Weather data provided by Environment Canada and NAV CANADA